sensor_id;sensor_type;location;lat;lon;timestamp;P1;durP1;ratioP1;P2;durP2;ratioP2
23590;SDS011;11973;52.098;7.582;2024-01-11T00:00:16;48.33;;;21.30;;
23590;SDS011;11973;52.098;7.582;2024-01-11T00:02:41;51.80;;;24.05;;
23590;SDS011;11973;52.098;7.582;2024-01-11T00:05:07;49.58;;;25.40;;
23590;SDS011;11973;52.098;7.582;2024-01-11T00:07:34;49.30;;;23.17;;
23590;SDS011;11973;52.098;7.582;2024-01-11T00:10:00;55.60;;;23.35;;
23590;SDS011;11973;52.098;7.582;2024-01-11T00:12:27;49.45;;;22.63;;
23590;SDS011;11973;52.098;7.582;2024-01-11T00:14:53;49.47;;;31.88;;
23590;SDS011;11973;52.098;7.582;2024-01-11T00:17:19;50.05;;;23.55;;
23590;SDS011;11973;52.098;7.582;2024-01-11T00:19:45;47.92;;;22.48;;
23590;SDS011;11973;52.098;7.582;2024-01-11T00:22:10;46.05;;;31.27;;
23590;SDS011;11973;52.098;7.582;2024-01-11T00:24:36;50.10;;;22.55;;
23590;SDS011;11973;52.098;7.582;2024-01-11T00:27:02;46.13;;;30.63;;
23590;SDS011;11973;52.098;7.582;2024-01-11T00:29:28;51.63;;;32.70;;
23590;SDS011;11973;52.098;7.582;2024-01-11T05:15:31;51.70;;;23.83;;
23590;SDS011;11973;52.098;7.582;2024-01-11T05:17:58;51.33;;;24.23;;
23590;SDS011;11973;52.098;7.582;2024-01-11T05:20:30;52.65;;;24.52;;
23590;SDS011;11973;52.098;7.582;2024-01-11T05:23:06;50.65;;;23.15;;
23590;SDS011;11973;52.098;7.582;2024-01-11T05:25:32;53.13;;;24.55;;
23590;SDS011;11973;52.098;7.582;2024-01-11T05:28:00;49.45;;;20.50;;
23590;SDS011;11973;52.098;7.582;2024-01-11T05:30:26;55.08;;;22.25;;
23590;SDS011;11973;52.098;7.582;2024-01-11T05:32:55;49.33;;;20.48;;
23590;SDS011;11973;52.098;7.582;2024-01-11T05:35:22;51.92;;;22.08;;
23590;SDS011;11973;52.098;7.582;2024-01-11T05:37:52;51.55;;;21.58;;
23590;SDS011;11973;52.098;7.582;2024-01-11T05:40:20;51.17;;;20.92;;
23590;SDS011;11973;52.098;7.582;2024-01-11T05:42:46;55.88;;;21.85;;
23590;SDS011;11973;52.098;7.582;2024-01-11T05:45:12;50.05;;;23.67;;
23590;SDS011;11973;52.098;7.582;2024-01-11T05:47:41;54.45;;;21.38;;
23590;SDS011;11973;52.098;7.582;2024-01-11T05:50:08;51.05;;;21.63;;
23590;SDS011;11973;52.098;7.582;2024-01-11T05:52:34;46.78;;;21.30;;
23590;SDS011;11973;52.098;7.582;2024-01-11T05:54:59;53.13;;;24.67;;
23590;SDS011;11973;52.098;7.582;2024-01-11T05:57:25;48.40;;;21.35;;
23590;SDS011;11973;52.098;7.582;2024-01-11T05:59:51;54.63;;;35.25;;
23590;SDS011;11973;52.098;7.582;2024-01-11T06:02:18;60.22;;;24.95;;
23590;SDS011;11973;52.098;7.582;2024-01-11T06:04:45;51.38;;;23.92;;
23590;SDS011;11973;52.098;7.582;2024-01-11T06:07:12;49.42;;;32.35;;
23590;SDS011;11973;52.098;7.582;2024-01-11T06:09:38;54.95;;;23.52;;
23590;SDS011;11973;52.098;7.582;2024-01-11T06:12:04;54.47;;;22.75;;
23590;SDS011;11973;52.098;7.582;2024-01-11T06:14:30;53.53;;;24.42;;
23590;SDS011;11973;52.098;7.582;2024-01-11T06:16:55;56.20;;;24.75;;
23590;SDS011;11973;52.098;7.582;2024-01-11T06:19:22;53.38;;;24.67;;
23590;SDS011;11973;52.098;7.582;2024-01-11T06:21:48;45.85;;;19.48;;
23590;SDS011;11973;52.098;7.582;2024-01-11T06:24:14;52.03;;;21.65;;
23590;SDS011;11973;52.098;7.582;2024-01-11T06:26:39;53.58;;;20.67;;
23590;SDS011;11973;52.098;7.582;2024-01-11T06:29:06;53.65;;;23.40;;
23590;SDS011;11973;52.098;7.582;2024-01-11T06:31:32;59.80;;;37.97;;
23590;SDS011;11973;52.098;7.582;2024-01-11T06:33:58;56.70;;;26.60;;
23590;SDS011;11973;52.098;7.582;2024-01-11T06:36:24;58.30;;;36.67;;
23590;SDS011;11973;52.098;7.582;2024-01-11T06:38:50;59.35;;;27.45;;
23590;SDS011;11973;52.098;7.582;2024-01-11T06:41:16;63.17;;;27.98;;
23590;SDS011;11973;52.098;7.582;2024-01-11T06:43:42;69.70;;;29.30;;
23590;SDS011;11973;52.098;7.582;2024-01-11T06:46:08;66.70;;;26.02;;
23590;SDS011;11973;52.098;7.582;2024-01-11T06:48:35;60.95;;;23.80;;
23590;SDS011;11973;52.098;7.582;2024-01-11T06:51:01;62.83;;;24.98;;
23590;SDS011;11973;52.098;7.582;2024-01-11T06:53:27;64.03;;;24.85;;
23590;SDS011;11973;52.098;7.582;2024-01-11T06:55:53;52.83;;;21.98;;
23590;SDS011;11973;52.098;7.582;2024-01-11T06:58:22;56.45;;;23.05;;
23590;SDS011;11973;52.098;7.582;2024-01-11T07:00:48;55.63;;;22.67;;
23590;SDS011;11973;52.098;7.582;2024-01-11T07:03:14;56.83;;;24.60;;
23590;SDS011;11973;52.098;7.582;2024-01-11T07:05:40;53.65;;;22.95;;
23590;SDS011;11973;52.098;7.582;2024-01-11T07:08:06;53.90;;;23.10;;
23590;SDS011;11973;52.098;7.582;2024-01-11T07:10:32;50.88;;;22.55;;
23590;SDS011;11973;52.098;7.582;2024-01-11T07:12:58;53.28;;;22.33;;
23590;SDS011;11973;52.098;7.582;2024-01-11T07:15:24;54.17;;;36.08;;
23590;SDS011;11973;52.098;7.582;2024-01-11T07:17:49;53.70;;;25.42;;
23590;SDS011;11973;52.098;7.582;2024-01-11T07:20:15;57.83;;;26.63;;
23590;SDS011;11973;52.098;7.582;2024-01-11T07:22:44;57.90;;;23.23;;
23590;SDS011;11973;52.098;7.582;2024-01-11T07:25:09;52.28;;;23.27;;
23590;SDS011;11973;52.098;7.582;2024-01-11T07:27:35;55.72;;;22.85;;
23590;SDS011;11973;52.098;7.582;2024-01-11T07:30:01;61.20;;;27.23;;
23590;SDS011;11973;52.098;7.582;2024-01-11T07:32:28;59.45;;;26.08;;
23590;SDS011;11973;52.098;7.582;2024-01-11T07:34:54;63.20;;;24.63;;
23590;SDS011;11973;52.098;7.582;2024-01-11T07:37:19;66.65;;;25.67;;
23590;SDS011;11973;52.098;7.582;2024-01-11T07:39:45;66.05;;;25.02;;
23590;SDS011;11973;52.098;7.582;2024-01-11T07:42:11;58.60;;;23.85;;
23590;SDS011;11973;52.098;7.582;2024-01-11T07:44:37;55.95;;;24.95;;
23590;SDS011;11973;52.098;7.582;2024-01-11T07:47:03;57.35;;;24.13;;
23590;SDS011;11973;52.098;7.582;2024-01-11T07:49:29;59.85;;;24.05;;
23590;SDS011;11973;52.098;7.582;2024-01-11T07:51:55;59.00;;;38.97;;
23590;SDS011;11973;52.098;7.582;2024-01-11T07:54:21;63.50;;;28.23;;
23590;SDS011;11973;52.098;7.582;2024-01-11T07:56:47;62.67;;;25.13;;
23590;SDS011;11973;52.098;7.582;2024-01-11T07:59:13;59.38;;;23.48;;
23590;SDS011;11973;52.098;7.582;2024-01-11T08:01:40;59.55;;;25.30;;
23590;SDS011;11973;52.098;7.582;2024-01-11T08:04:06;66.55;;;24.65;;
23590;SDS011;11973;52.098;7.582;2024-01-11T08:06:32;55.63;;;37.40;;
23590;SDS011;11973;52.098;7.582;2024-01-11T08:08:57;65.72;;;28.83;;
23590;SDS011;11973;52.098;7.582;2024-01-11T08:11:23;54.45;;;23.08;;
23590;SDS011;11973;52.098;7.582;2024-01-11T08:13:49;62.38;;;25.52;;
23590;SDS011;11973;52.098;7.582;2024-01-11T08:16:17;60.28;;;25.38;;
23590;SDS011;11973;52.098;7.582;2024-01-11T08:18:43;63.25;;;25.88;;
23590;SDS011;11973;52.098;7.582;2024-01-11T08:21:11;59.80;;;24.08;;
23590;SDS011;11973;52.098;7.582;2024-01-11T08:23:39;59.08;;;25.48;;
23590;SDS011;11973;52.098;7.582;2024-01-11T08:26:10;62.15;;;26.05;;
23590;SDS011;11973;52.098;7.582;2024-01-11T08:28:39;66.45;;;26.67;;
23590;SDS011;11973;52.098;7.582;2024-01-11T08:31:05;65.00;;;25.75;;
23590;SDS011;11973;52.098;7.582;2024-01-11T08:33:31;75.68;;;30.80;;
23590;SDS011;11973;52.098;7.582;2024-01-11T08:35:57;62.00;;;26.70;;
23590;SDS011;11973;52.098;7.582;2024-01-11T08:38:23;59.70;;;40.30;;
23590;SDS011;11973;52.098;7.582;2024-01-11T08:40:50;78.20;;;33.05;;
23590;SDS011;11973;52.098;7.582;2024-01-11T08:43:15;67.85;;;43.30;;
23590;SDS011;11973;52.098;7.582;2024-01-11T08:45:41;82.35;;;35.25;;
23590;SDS011;11973;52.098;7.582;2024-01-11T08:48:08;86.32;;;33.28;;
23590;SDS011;11973;52.098;7.582;2024-01-11T08:50:35;61.75;;;40.58;;
23590;SDS011;11973;52.098;7.582;2024-01-11T08:53:00;77.55;;;33.78;;
23590;SDS011;11973;52.098;7.582;2024-01-11T08:55:26;68.80;;;43.97;;
23590;SDS011;11973;52.098;7.582;2024-01-11T08:57:52;63.42;;;39.97;;
23590;SDS011;11973;52.098;7.582;2024-01-11T09:00:18;72.05;;;31.95;;
23590;SDS011;11973;52.098;7.582;2024-01-11T09:02:44;70.47;;;29.27;;
23590;SDS011;11973;52.098;7.582;2024-01-11T09:05:10;74.32;;;29.63;;
23590;SDS011;11973;52.098;7.582;2024-01-11T09:07:37;70.82;;;29.58;;
23590;SDS011;11973;52.098;7.582;2024-01-11T09:10:03;59.42;;;37.92;;
23590;SDS011;11973;52.098;7.582;2024-01-11T09:12:29;53.75;;;37.13;;
23590;SDS011;11973;52.098;7.582;2024-01-11T09:14:54;66.90;;;30.27;;
23590;SDS011;11973;52.098;7.582;2024-01-11T09:17:20;66.70;;;29.98;;
23590;SDS011;11973;52.098;7.582;2024-01-11T09:19:46;58.63;;;38.05;;
23590;SDS011;11973;52.098;7.582;2024-01-11T09:22:12;71.95;;;33.63;;
23590;SDS011;11973;52.098;7.582;2024-01-11T09:24:38;68.00;;;30.20;;
23590;SDS011;11973;52.098;7.582;2024-01-11T09:27:03;55.70;;;36.55;;
23590;SDS011;11973;52.098;7.582;2024-01-11T09:29:29;64.75;;;30.70;;
23590;SDS011;11973;52.098;7.582;2024-01-11T09:31:55;67.72;;;28.42;;
23590;SDS011;11973;52.098;7.582;2024-01-11T09:34:21;64.10;;;29.30;;
23590;SDS011;11973;52.098;7.582;2024-01-11T09:36:47;63.70;;;27.55;;
23590;SDS011;11973;52.098;7.582;2024-01-11T09:39:12;66.28;;;28.08;;
23590;SDS011;11973;52.098;7.582;2024-01-11T09:41:40;48.38;;;33.33;;
23590;SDS011;11973;52.098;7.582;2024-01-11T09:44:10;46.40;;;31.88;;
23590;SDS011;11973;52.098;7.582;2024-01-11T09:46:36;50.90;;;32.13;;
23590;SDS011;11973;52.098;7.582;2024-01-11T09:49:02;44.97;;;30.90;;
23590;SDS011;11973;52.098;7.582;2024-01-11T09:51:29;49.50;;;24.73;;
23590;SDS011;11973;52.098;7.582;2024-01-11T09:53:55;40.97;;;28.85;;
23590;SDS011;11973;52.098;7.582;2024-01-11T09:56:25;43.83;;;29.65;;
23590;SDS011;11973;52.098;7.582;2024-01-11T09:58:53;39.55;;;28.40;;
23590;SDS011;11973;52.098;7.582;2024-01-11T10:01:18;37.40;;;27.35;;
23590;SDS011;11973;52.098;7.582;2024-01-11T10:03:45;39.95;;;27.73;;
23590;SDS011;11973;52.098;7.582;2024-01-11T10:06:13;40.47;;;28.40;;
23590;SDS011;11973;52.098;7.582;2024-01-11T10:08:40;38.30;;;27.05;;
23590;SDS011;11973;52.098;7.582;2024-01-11T10:11:06;39.80;;;27.90;;
23590;SDS011;11973;52.098;7.582;2024-01-11T10:13:32;39.58;;;27.85;;
23590;SDS011;11973;52.098;7.582;2024-01-11T10:18:35;33.72;;;24.73;;
23590;SDS011;11973;52.098;7.582;2024-01-11T10:21:01;32.55;;;24.80;;
23590;SDS011;11973;52.098;7.582;2024-01-11T10:23:28;41.13;;;20.75;;
23590;SDS011;11973;52.098;7.582;2024-01-11T10:25:56;35.78;;;25.40;;
23590;SDS011;11973;52.098;7.582;2024-01-11T10:28:26;40.63;;;20.02;;
23590;SDS011;11973;52.098;7.582;2024-01-11T10:30:52;35.10;;;24.98;;
23590;SDS011;11973;52.098;7.582;2024-01-11T10:33:19;41.70;;;21.45;;
23590;SDS011;11973;52.098;7.582;2024-01-11T10:35:48;34.60;;;24.88;;
23590;SDS011;11973;52.098;7.582;2024-01-11T10:38:17;36.40;;;24.10;;
23590;SDS011;11973;52.098;7.582;2024-01-11T10:40:43;34.55;;;25.05;;
23590;SDS011;11973;52.098;7.582;2024-01-11T10:43:10;36.13;;;24.92;;
23590;SDS011;11973;52.098;7.582;2024-01-11T10:45:37;36.50;;;23.80;;
23590;SDS011;11973;52.098;7.582;2024-01-11T10:50:37;36.55;;;24.55;;
23590;SDS011;11973;52.098;7.582;2024-01-11T10:53:12;37.20;;;23.77;;
23590;SDS011;11973;52.098;7.582;2024-01-11T10:55:42;37.75;;;24.33;;
23590;SDS011;11973;52.098;7.582;2024-01-11T10:58:10;36.72;;;25.17;;
23590;SDS011;11973;52.098;7.582;2024-01-11T11:00:36;40.22;;;25.48;;
23590;SDS011;11973;52.098;7.582;2024-01-11T11:03:03;38.08;;;25.90;;
23590;SDS011;11973;52.098;7.582;2024-01-11T11:05:32;37.42;;;24.77;;
23590;SDS011;11973;52.098;7.582;2024-01-11T11:08:03;41.80;;;20.67;;
23590;SDS011;11973;52.098;7.582;2024-01-11T11:10:31;30.42;;;23.38;;
23590;SDS011;11973;52.098;7.582;2024-01-11T11:12:59;33.22;;;23.75;;
23590;SDS011;11973;52.098;7.582;2024-01-11T11:15:28;33.53;;;23.85;;
23590;SDS011;11973;52.098;7.582;2024-01-11T11:17:54;35.75;;;24.50;;
23590;SDS011;11973;52.098;7.582;2024-01-11T11:20:20;38.00;;;23.85;;
23590;SDS011;11973;52.098;7.582;2024-01-11T11:25:31;44.47;;;20.63;;
23590;SDS011;11973;52.098;7.582;2024-01-11T11:27:58;35.85;;;25.42;;
23590;SDS011;11973;52.098;7.582;2024-01-11T11:30:29;36.80;;;25.27;;
23590;SDS011;11973;52.098;7.582;2024-01-11T11:32:55;35.65;;;24.70;;
23590;SDS011;11973;52.098;7.582;2024-01-11T11:35:25;44.50;;;21.58;;
23590;SDS011;11973;52.098;7.582;2024-01-11T11:37:57;38.03;;;26.20;;
23590;SDS011;11973;52.098;7.582;2024-01-11T11:40:32;42.60;;;29.20;;
23590;SDS011;11973;52.098;7.582;2024-01-11T11:43:07;55.55;;;34.47;;
23590;SDS011;11973;52.098;7.582;2024-01-11T11:45:32;45.35;;;30.10;;
23590;SDS011;11973;52.098;7.582;2024-01-11T11:47:59;52.63;;;24.42;;
23590;SDS011;11973;52.098;7.582;2024-01-11T11:50:24;46.00;;;29.42;;
23590;SDS011;11973;52.098;7.582;2024-01-11T11:52:54;46.83;;;27.98;;
23590;SDS011;11973;52.098;7.582;2024-01-11T11:55:23;49.72;;;29.23;;
23590;SDS011;11973;52.098;7.582;2024-01-11T11:57:50;54.63;;;24.40;;
23590;SDS011;11973;52.098;7.582;2024-01-11T12:00:17;46.75;;;29.58;;
23590;SDS011;11973;52.098;7.582;2024-01-11T12:02:44;57.75;;;31.58;;
23590;SDS011;11973;52.098;7.582;2024-01-11T12:05:12;57.33;;;30.58;;
23590;SDS011;11973;52.098;7.582;2024-01-11T12:07:39;52.08;;;23.40;;
23590;SDS011;11973;52.098;7.582;2024-01-11T12:10:05;55.97;;;30.92;;
23590;SDS011;11973;52.098;7.582;2024-01-11T12:12:33;61.72;;;32.55;;
23590;SDS011;11973;52.098;7.582;2024-01-11T12:15:00;65.35;;;25.33;;
23590;SDS011;11973;52.098;7.582;2024-01-11T12:17:30;59.50;;;31.50;;
23590;SDS011;11973;52.098;7.582;2024-01-11T12:19:56;58.10;;;32.05;;
23590;SDS011;11973;52.098;7.582;2024-01-11T12:22:23;60.72;;;31.80;;
23590;SDS011;11973;52.098;7.582;2024-01-11T12:24:49;62.03;;;32.75;;
23590;SDS011;11973;52.098;7.582;2024-01-11T12:27:15;60.50;;;24.75;;
23590;SDS011;11973;52.098;7.582;2024-01-11T12:29:41;65.43;;;33.15;;
23590;SDS011;11973;52.098;7.582;2024-01-11T12:32:07;64.68;;;33.90;;
23590;SDS011;11973;52.098;7.582;2024-01-11T12:34:38;74.13;;;36.47;;
23590;SDS011;11973;52.098;7.582;2024-01-11T12:37:05;71.63;;;28.83;;
23590;SDS011;11973;52.098;7.582;2024-01-11T12:39:31;67.72;;;26.50;;
23590;SDS011;11973;52.098;7.582;2024-01-11T12:41:59;68.47;;;35.55;;
23590;SDS011;11973;52.098;7.582;2024-01-11T12:44:25;68.55;;;35.13;;
23590;SDS011;11973;52.098;7.582;2024-01-11T12:46:51;68.13;;;27.27;;
23590;SDS011;11973;52.098;7.582;2024-01-11T12:49:17;66.25;;;27.63;;
23590;SDS011;11973;52.098;7.582;2024-01-11T12:51:43;70.43;;;36.05;;
23590;SDS011;11973;52.098;7.582;2024-01-11T12:54:12;63.40;;;34.63;;
23590;SDS011;11973;52.098;7.582;2024-01-11T12:56:44;77.70;;;38.47;;
23590;SDS011;11973;52.098;7.582;2024-01-11T12:59:11;83.63;;;40.13;;
23590;SDS011;11973;52.098;7.582;2024-01-11T13:01:40;85.47;;;30.70;;
23590;SDS011;11973;52.098;7.582;2024-01-11T13:04:09;86.32;;;41.15;;
23590;SDS011;11973;52.098;7.582;2024-01-11T13:06:35;102.57;;;34.65;;
23590;SDS011;11973;52.098;7.582;2024-01-11T13:09:02;89.95;;;30.63;;
23590;SDS011;11973;52.098;7.582;2024-01-11T13:11:28;99.40;;;43.55;;
23590;SDS011;11973;52.098;7.582;2024-01-11T13:13:54;94.05;;;43.97;;
23590;SDS011;11973;52.098;7.582;2024-01-11T13:16:20;101.63;;;44.13;;
23590;SDS011;11973;52.098;7.582;2024-01-11T13:18:46;88.68;;;40.95;;
23590;SDS011;11973;52.098;7.582;2024-01-11T13:21:12;95.22;;;33.38;;
23590;SDS011;11973;52.098;7.582;2024-01-11T13:23:38;104.57;;;33.10;;
23590;SDS011;11973;52.098;7.582;2024-01-11T13:26:05;98.15;;;34.20;;
23590;SDS011;11973;52.098;7.582;2024-01-11T13:28:32;91.80;;;33.85;;
23590;SDS011;11973;52.098;7.582;2024-01-11T13:30:58;82.07;;;39.33;;
23590;SDS011;11973;52.098;7.582;2024-01-11T13:33:25;90.85;;;41.38;;
23590;SDS011;11973;52.098;7.582;2024-01-11T13:35:52;90.32;;;42.08;;
23590;SDS011;11973;52.098;7.582;2024-01-11T13:38:53;96.05;;;31.73;;
23590;SDS011;11973;52.098;7.582;2024-01-11T14:40:54;83.43;;;44.55;;
23590;SDS011;11973;52.098;7.582;2024-01-11T14:43:21;106.88;;;36.55;;
23590;SDS011;11973;52.098;7.582;2024-01-11T14:45:47;111.13;;;38.85;;
23590;SDS011;11973;52.098;7.582;2024-01-11T14:48:13;80.78;;;44.42;;
23590;SDS011;11973;52.098;7.582;2024-01-11T14:50:39;113.93;;;41.33;;
23590;SDS011;11973;52.098;7.582;2024-01-11T14:53:04;90.72;;;49.03;;
23590;SDS011;11973;52.098;7.582;2024-01-11T14:55:30;89.55;;;50.63;;
23590;SDS011;11973;52.098;7.582;2024-01-11T14:57:56;87.03;;;48.45;;
23590;SDS011;11973;52.098;7.582;2024-01-11T15:00:22;104.43;;;39.08;;
23590;SDS011;11973;52.098;7.582;2024-01-11T15:02:49;77.57;;;42.78;;
23590;SDS011;11973;52.098;7.582;2024-01-11T15:05:14;91.90;;;50.15;;
23590;SDS011;11973;52.098;7.582;2024-01-11T15:07:40;102.07;;;39.67;;
23590;SDS011;11973;52.098;7.582;2024-01-11T15:10:06;79.00;;;43.58;;
23590;SDS011;11973;52.098;7.582;2024-01-11T15:12:32;92.28;;;52.45;;
23590;SDS011;11973;52.098;7.582;2024-01-11T15:14:58;72.82;;;41.75;;
23590;SDS011;11973;52.098;7.582;2024-01-11T15:17:24;103.80;;;57.55;;
23590;SDS011;11973;52.098;7.582;2024-01-11T15:19:50;96.80;;;35.30;;
23590;SDS011;11973;52.098;7.582;2024-01-11T15:22:16;73.85;;;41.72;;
23590;SDS011;11973;52.098;7.582;2024-01-11T15:24:42;103.70;;;39.47;;
23590;SDS011;11973;52.098;7.582;2024-01-11T15:27:08;84.72;;;48.65;;
23590;SDS011;11973;52.098;7.582;2024-01-11T15:29:34;84.15;;;47.35;;
23590;SDS011;11973;52.098;7.582;2024-01-11T15:31:59;82.72;;;46.38;;
23590;SDS011;11973;52.098;7.582;2024-01-11T15:34:25;94.50;;;48.50;;
23590;SDS011;11973;52.098;7.582;2024-01-11T15:36:51;93.22;;;48.58;;
23590;SDS011;11973;52.098;7.582;2024-01-11T15:39:18;116.68;;;44.03;;
23590;SDS011;11973;52.098;7.582;2024-01-11T15:41:45;104.05;;;37.92;;
23590;SDS011;11973;52.098;7.582;2024-01-11T15:44:12;78.93;;;43.15;;
23590;SDS011;11973;52.098;7.582;2024-01-11T15:46:38;81.85;;;43.65;;
23590;SDS011;11973;52.098;7.582;2024-01-11T15:49:03;121.50;;;40.92;;
23590;SDS011;11973;52.098;7.582;2024-01-11T15:51:29;96.47;;;48.97;;
23590;SDS011;11973;52.098;7.582;2024-01-11T15:53:55;76.75;;;42.17;;
23590;SDS011;11973;52.098;7.582;2024-01-11T15:56:21;82.63;;;43.72;;
23590;SDS011;11973;52.098;7.582;2024-01-11T15:58:46;78.93;;;43.03;;
23590;SDS011;11973;52.098;7.582;2024-01-11T16:01:13;94.85;;;31.88;;
23590;SDS011;11973;52.098;7.582;2024-01-11T16:03:39;83.50;;;42.28;;
23590;SDS011;11973;52.098;7.582;2024-01-11T16:06:05;81.82;;;42.97;;
23590;SDS011;11973;52.098;7.582;2024-01-11T16:08:30;94.38;;;32.03;;
23590;SDS011;11973;52.098;7.582;2024-01-11T16:10:56;100.40;;;33.40;;
23590;SDS011;11973;52.098;7.582;2024-01-11T16:13:22;81.03;;;39.15;;
23590;SDS011;11973;52.098;7.582;2024-01-11T16:15:48;78.32;;;38.70;;
23590;SDS011;11973;52.098;7.582;2024-01-11T16:18:13;79.80;;;39.25;;
23590;SDS011;11973;52.098;7.582;2024-01-11T16:20:40;84.68;;;38.80;;
23590;SDS011;11973;52.098;7.582;2024-01-11T16:23:06;82.68;;;38.75;;
23590;SDS011;11973;52.098;7.582;2024-01-11T16:25:31;82.90;;;38.08;;
23590;SDS011;11973;52.098;7.582;2024-01-11T16:27:57;84.05;;;40.03;;
23590;SDS011;11973;52.098;7.582;2024-01-11T16:30:23;84.05;;;38.83;;
23590;SDS011;11973;52.098;7.582;2024-01-11T16:32:49;87.00;;;38.22;;
23590;SDS011;11973;52.098;7.582;2024-01-11T16:35:15;82.03;;;39.10;;
23590;SDS011;11973;52.098;7.582;2024-01-11T16:37:41;89.47;;;40.08;;
23590;SDS011;11973;52.098;7.582;2024-01-11T16:40:07;91.60;;;39.67;;
23590;SDS011;11973;52.098;7.582;2024-01-11T16:42:36;94.65;;;39.88;;
23590;SDS011;11973;52.098;7.582;2024-01-11T16:45:01;100.07;;;41.72;;
23590;SDS011;11973;52.098;7.582;2024-01-11T16:47:28;88.55;;;40.08;;
23590;SDS011;11973;52.098;7.582;2024-01-11T16:50:01;108.72;;;49.45;;
23590;SDS011;11973;52.098;7.582;2024-01-11T16:52:31;96.90;;;41.80;;
23590;SDS011;11973;52.098;7.582;2024-01-11T16:55:00;100.88;;;43.50;;
23590;SDS011;11973;52.098;7.582;2024-01-11T16:57:26;101.50;;;40.60;;
23590;SDS011;11973;52.098;7.582;2024-01-11T16:59:53;97.70;;;42.50;;
23590;SDS011;11973;52.098;7.582;2024-01-11T17:02:22;122.53;;;52.60;;
23590;SDS011;11973;52.098;7.582;2024-01-11T17:04:48;96.60;;;44.03;;
23590;SDS011;11973;52.098;7.582;2024-01-11T17:07:14;106.25;;;44.28;;
23590;SDS011;11973;52.098;7.582;2024-01-11T17:09:41;116.75;;;48.67;;
23590;SDS011;11973;52.098;7.582;2024-01-11T17:12:14;112.70;;;48.53;;
23590;SDS011;11973;52.098;7.582;2024-01-11T17:14:40;127.22;;;57.75;;
23590;SDS011;11973;52.098;7.582;2024-01-11T17:17:42;136.73;;;56.38;;
23590;SDS011;11973;52.098;7.582;2024-01-11T17:20:11;222.05;;;116.05;;
23590;SDS011;11973;52.098;7.582;2024-01-11T17:22:41;168.43;;;80.13;;
23590;SDS011;11973;52.098;7.582;2024-01-11T17:25:07;125.63;;;52.20;;
23590;SDS011;11973;52.098;7.582;2024-01-11T17:27:33;126.50;;;53.35;;
23590;SDS011;11973;52.098;7.582;2024-01-11T17:29:59;124.63;;;49.97;;
23590;SDS011;11973;52.098;7.582;2024-01-11T17:32:25;132.02;;;55.10;;
23590;SDS011;11973;52.098;7.582;2024-01-11T17:34:52;137.32;;;54.50;;
23590;SDS011;11973;52.098;7.582;2024-01-11T17:37:19;129.63;;;49.58;;
23590;SDS011;11973;52.098;7.582;2024-01-11T17:39:49;141.30;;;50.58;;
23590;SDS011;11973;52.098;7.582;2024-01-11T17:42:15;141.18;;;51.97;;
23590;SDS011;11973;52.098;7.582;2024-01-11T17:44:41;139.98;;;50.63;;
23590;SDS011;11973;52.098;7.582;2024-01-11T17:47:08;137.07;;;52.33;;
23590;SDS011;11973;52.098;7.582;2024-01-11T17:49:34;138.95;;;51.20;;
23590;SDS011;11973;52.098;7.582;2024-01-11T17:52:04;140.18;;;55.30;;
23590;SDS011;11973;52.098;7.582;2024-01-11T17:54:30;122.32;;;51.58;;
23590;SDS011;11973;52.098;7.582;2024-01-11T17:56:56;143.43;;;53.15;;
23590;SDS011;11973;52.098;7.582;2024-01-11T17:59:23;124.72;;;51.33;;
23590;SDS011;11973;52.098;7.582;2024-01-11T18:01:48;143.57;;;54.90;;
23590;SDS011;11973;52.098;7.582;2024-01-11T18:04:14;140.93;;;57.92;;
23590;SDS011;11973;52.098;7.582;2024-01-11T18:06:43;129.60;;;52.20;;
23590;SDS011;11973;52.098;7.582;2024-01-11T18:09:10;151.13;;;54.63;;
23590;SDS011;11973;52.098;7.582;2024-01-11T18:11:36;148.27;;;59.25;;
23590;SDS011;11973;52.098;7.582;2024-01-11T18:14:02;149.00;;;58.13;;
23590;SDS011;11973;52.098;7.582;2024-01-11T18:16:28;145.93;;;55.65;;
23590;SDS011;11973;52.098;7.582;2024-01-11T18:18:54;135.95;;;53.75;;
23590;SDS011;11973;52.098;7.582;2024-01-11T18:21:20;158.68;;;57.10;;
23590;SDS011;11973;52.098;7.582;2024-01-11T18:23:46;149.68;;;55.70;;
23590;SDS011;11973;52.098;7.582;2024-01-11T18:26:12;160.17;;;59.93;;
23590;SDS011;11973;52.098;7.582;2024-01-11T18:28:39;162.88;;;57.78;;
23590;SDS011;11973;52.098;7.582;2024-01-11T18:31:05;162.20;;;58.15;;
23590;SDS011;11973;52.098;7.582;2024-01-11T18:33:30;163.13;;;58.42;;
23590;SDS011;11973;52.098;7.582;2024-01-11T18:35:56;169.75;;;59.42;;
23590;SDS011;11973;52.098;7.582;2024-01-11T18:38:22;163.35;;;61.78;;
23590;SDS011;11973;52.098;7.582;2024-01-11T18:40:48;191.50;;;76.53;;
23590;SDS011;11973;52.098;7.582;2024-01-11T18:43:14;197.15;;;75.63;;
23590;SDS011;11973;52.098;7.582;2024-01-11T18:45:43;208.75;;;83.97;;
23590;SDS011;11973;52.098;7.582;2024-01-11T18:48:09;189.48;;;70.10;;
23590;SDS011;11973;52.098;7.582;2024-01-11T18:50:37;174.95;;;62.72;;
23590;SDS011;11973;52.098;7.582;2024-01-11T18:53:03;169.88;;;61.45;;
23590;SDS011;11973;52.098;7.582;2024-01-11T18:55:32;191.68;;;62.38;;
23590;SDS011;11973;52.098;7.582;2024-01-11T18:57:58;177.40;;;61.42;;
23590;SDS011;11973;52.098;7.582;2024-01-11T19:00:24;171.80;;;59.45;;
23590;SDS011;11973;52.098;7.582;2024-01-11T19:02:50;182.35;;;62.42;;
23590;SDS011;11973;52.098;7.582;2024-01-11T19:05:17;172.73;;;59.33;;
23590;SDS011;11973;52.098;7.582;2024-01-11T19:07:44;180.15;;;60.65;;
23590;SDS011;11973;52.098;7.582;2024-01-11T19:10:11;194.00;;;61.13;;
23590;SDS011;11973;52.098;7.582;2024-01-11T19:12:37;189.88;;;58.42;;
23590;SDS011;11973;52.098;7.582;2024-01-11T19:15:03;179.60;;;60.83;;
23590;SDS011;11973;52.098;7.582;2024-01-11T19:17:30;182.40;;;63.53;;
23590;SDS011;11973;52.098;7.582;2024-01-11T19:19:56;176.93;;;58.85;;
23590;SDS011;11973;52.098;7.582;2024-01-11T19:22:22;171.82;;;58.20;;
23590;SDS011;11973;52.098;7.582;2024-01-11T19:24:48;172.35;;;56.80;;
23590;SDS011;11973;52.098;7.582;2024-01-11T19:27:14;171.43;;;56.10;;
23590;SDS011;11973;52.098;7.582;2024-01-11T19:29:40;173.55;;;55.75;;
23590;SDS011;11973;52.098;7.582;2024-01-11T19:32:06;173.40;;;56.47;;
23590;SDS011;11973;52.098;7.582;2024-01-11T19:34:32;182.00;;;61.88;;
23590;SDS011;11973;52.098;7.582;2024-01-11T19:37:00;168.05;;;56.63;;
23590;SDS011;11973;52.098;7.582;2024-01-11T19:39:27;179.05;;;55.25;;
23590;SDS011;11973;52.098;7.582;2024-01-11T19:41:53;163.70;;;53.33;;
23590;SDS011;11973;52.098;7.582;2024-01-11T19:44:19;153.65;;;52.78;;
23590;SDS011;11973;52.098;7.582;2024-01-11T19:46:46;176.45;;;54.95;;
23590;SDS011;11973;52.098;7.582;2024-01-11T19:49:11;167.15;;;54.15;;
23590;SDS011;11973;52.098;7.582;2024-01-11T19:51:37;153.45;;;51.28;;
23590;SDS011;11973;52.098;7.582;2024-01-11T19:54:04;166.60;;;52.05;;
23590;SDS011;11973;52.098;7.582;2024-01-11T19:56:30;146.05;;;49.30;;
23590;SDS011;11973;52.098;7.582;2024-01-11T19:58:57;150.55;;;51.40;;
23590;SDS011;11973;52.098;7.582;2024-01-11T20:01:24;141.55;;;47.88;;
23590;SDS011;11973;52.098;7.582;2024-01-11T20:03:50;145.23;;;48.45;;
23590;SDS011;11973;52.098;7.582;2024-01-11T20:06:16;140.18;;;49.65;;